createdAt,value
2019-02-25T00:01:34.514Z,39.13
2019-02-25T00:03:10.617Z,38.20
2019-02-25T00:04:46.974Z,36.33
2019-02-25T00:06:23.217Z,35.53
2019-02-25T00:07:59.175Z,34.27
2019-02-25T00:09:35.432Z,38.53
2019-02-25T00:11:11.628Z,36.83
2019-02-25T00:12:47.950Z,35.77
2019-02-25T00:14:24.058Z,37.37
2019-02-25T00:16:00.193Z,36.37
2019-02-25T00:17:38.141Z,38.37
2019-02-25T00:19:14.275Z,38.70
2019-02-25T00:20:50.290Z,37.63
2019-02-25T00:22:26.581Z,37.20
2019-02-25T00:24:02.768Z,38.73
2019-02-25T00:25:38.964Z,37.57
2019-02-25T00:27:15.020Z,38.00
2019-02-25T00:28:51.037Z,38.13
2019-02-25T00:30:27.305Z,37.27
2019-02-25T00:32:03.562Z,38.37
2019-02-25T00:33:39.603Z,38.23
2019-02-25T00:35:15.757Z,38.50
2019-02-25T00:36:51.745Z,35.90
2019-02-25T00:38:28.003Z,37.53
2019-02-25T00:40:05.321Z,39.40
2019-02-25T00:41:41.483Z,39.77
2019-02-25T00:43:17.791Z,37.67
2019-02-25T00:44:53.967Z,37.63
2019-02-25T00:46:30.086Z,38.50
2019-02-25T00:48:06.410Z,38.27
2019-02-25T00:49:42.622Z,37.10
2019-02-25T00:51:18.523Z,36.97
2019-02-25T00:52:54.496Z,38.50
2019-02-25T00:54:30.507Z,39.00
2019-02-25T00:56:06.811Z,36.67
2019-02-25T00:57:44.459Z,37.70
2019-02-25T00:59:20.579Z,36.60
2019-02-25T01:00:56.693Z,37.20
2019-02-25T01:02:32.822Z,39.87
2019-02-25T01:04:10.272Z,38.83
2019-02-25T01:05:46.684Z,37.73
2019-02-25T01:07:22.902Z,37.70
2019-02-25T01:08:59.014Z,37.60
2019-02-25T01:10:35.469Z,35.97
2019-02-25T01:12:11.849Z,36.97
2019-02-25T01:13:47.966Z,35.30
2019-02-25T01:15:24.079Z,36.73
2019-02-25T01:17:00.438Z,35.80
2019-02-25T01:18:36.631Z,34.67
2019-02-25T01:20:16.209Z,36.60
2019-02-25T01:21:52.342Z,35.70
2019-02-25T01:23:28.549Z,35.60
2019-02-25T01:25:06.623Z,35.80
2019-02-25T01:26:42.591Z,33.90
2019-02-25T01:28:18.620Z,32.97
2019-02-25T01:29:54.749Z,31.80
2019-02-25T01:31:30.895Z,33.03
2019-02-25T01:33:07.016Z,34.10
2019-02-25T01:34:43.126Z,33.77
2019-02-25T01:36:19.350Z,32.33
2019-02-25T01:37:55.449Z,34.10
2019-02-25T01:39:31.351Z,34.70
2019-02-25T01:41:07.518Z,34.23
2019-02-25T01:42:43.912Z,33.90
2019-02-25T01:44:19.996Z,33.83
2019-02-25T01:45:56.229Z,32.17
2019-02-25T01:47:32.369Z,31.03
2019-02-25T01:49:08.513Z,32.43
2019-02-25T01:50:44.639Z,33.10
2019-02-25T01:52:20.691Z,30.63
2019-02-25T01:53:56.669Z,30.60
2019-02-25T01:55:34.099Z,30.30
2019-02-25T01:57:10.148Z,30.40
2019-02-25T01:58:46.180Z,30.07
2019-02-25T02:00:22.398Z,31.53
2019-02-25T02:01:58.491Z,30.60
2019-02-25T02:03:34.653Z,30.30
2019-02-25T02:05:11.246Z,31.03
2019-02-25T02:06:47.418Z,30.33
2019-02-25T02:08:23.483Z,29.97
2019-02-25T02:09:59.695Z,29.80
2019-02-25T02:11:35.767Z,30.30
2019-02-25T02:13:14.416Z,28.23
2019-02-25T02:14:49.780Z,30.47
2019-02-25T02:16:25.791Z,28.67
2019-02-25T02:18:01.982Z,29.93
2019-02-25T02:19:38.076Z,29.27
2019-02-25T02:21:14.065Z,27.43
2019-02-25T02:22:50.137Z,27.87
2019-02-25T02:24:26.316Z,27.57
2019-02-25T02:26:02.354Z,26.87
2019-02-25T02:27:38.573Z,28.70
2019-02-25T02:29:14.719Z,28.40
2019-02-25T02:30:50.875Z,28.50
2019-02-25T02:32:26.880Z,26.60
2019-02-25T02:34:02.865Z,27.47
2019-02-25T02:35:38.989Z,27.70
2019-02-25T02:37:15.061Z,28.10
2019-02-25T02:38:51.033Z,26.77
2019-02-25T02:40:27.261Z,27.27
2019-02-25T02:42:18.477Z,26.17
2019-02-25T02:43:54.643Z,26.70
2019-02-25T02:45:53.197Z,27.97
2019-02-25T02:47:33.935Z,28.30
2019-02-25T02:49:09.881Z,28.43
2019-02-25T02:50:45.854Z,28.83
2019-02-25T02:52:21.908Z,29.20
2019-02-25T02:53:57.803Z,27.07
2019-02-25T02:55:33.869Z,27.50
2019-02-25T02:57:09.925Z,28.23
2019-02-25T02:58:45.965Z,28.97
2019-02-25T03:00:22.069Z,28.17
2019-02-25T03:01:57.983Z,27.40
2019-02-25T03:03:33.949Z,26.47
2019-02-25T03:05:13.327Z,27.10
2019-02-25T03:06:49.302Z,26.57
2019-02-25T03:08:25.394Z,25.03
2019-02-25T03:10:01.421Z,25.50
2019-02-25T03:11:37.525Z,26.07
2019-02-25T03:13:13.742Z,25.93
2019-02-25T03:14:49.734Z,24.57
2019-02-25T03:16:25.793Z,24.90
2019-02-25T03:18:01.940Z,25.37
2019-02-25T03:19:37.949Z,25.10
2019-02-25T03:21:14.013Z,24.93
2019-02-25T03:22:50.224Z,24.90
2019-02-25T03:24:26.383Z,24.53
2019-02-25T03:26:02.420Z,23.70
2019-02-25T03:27:38.457Z,23.63
2019-02-25T03:29:14.472Z,24.20
2019-02-25T03:30:50.453Z,25.03
2019-02-25T03:32:26.644Z,25.50
2019-02-25T03:34:02.614Z,25.83
2019-02-25T03:35:38.601Z,25.00
2019-02-25T03:37:14.774Z,24.50
2019-02-25T03:38:50.680Z,24.90
2019-02-25T03:40:27.096Z,24.53
2019-02-25T03:42:03.719Z,23.47
2019-02-25T03:43:39.687Z,24.93
2019-02-25T03:45:18.877Z,24.67
2019-02-25T03:46:54.879Z,23.80
2019-02-25T03:48:31.029Z,23.00
2019-02-25T03:50:08.351Z,22.47
2019-02-25T03:51:44.830Z,22.53
2019-02-25T03:53:21.034Z,23.40
2019-02-25T03:54:57.247Z,21.27
2019-02-25T03:56:33.457Z,23.10
2019-02-25T03:58:09.582Z,23.10
2019-02-25T03:59:45.785Z,22.10
2019-02-25T04:01:22.302Z,22.00
2019-02-25T04:02:58.727Z,21.93
2019-02-25T04:04:35.049Z,22.20
2019-02-25T04:06:11.564Z,22.23
2019-02-25T04:07:47.775Z,22.00
2019-02-25T04:09:24.119Z,22.17
2019-02-25T04:11:00.021Z,22.33
2019-02-25T04:12:36.062Z,22.33
2019-02-25T04:14:13.500Z,23.40
2019-02-25T04:15:49.537Z,21.87
2019-02-25T04:17:25.676Z,22.93
2019-02-25T04:19:03.172Z,23.63
2019-02-25T04:20:40.484Z,21.97
2019-02-25T04:22:16.527Z,22.40
2019-02-25T04:23:52.586Z,22.23
2019-02-25T04:25:28.840Z,22.17
2019-02-25T04:27:04.982Z,23.27
2019-02-25T04:28:41.222Z,21.87
2019-02-25T04:30:17.736Z,22.60
2019-02-25T04:31:54.129Z,22.37
2019-02-25T04:33:30.105Z,22.93
2019-02-25T04:35:09.534Z,22.47
2019-02-25T04:36:45.572Z,22.57
2019-02-25T04:38:21.609Z,22.03
2019-02-25T04:39:57.516Z,22.17
2019-02-25T04:41:34.065Z,22.03
2019-02-25T04:43:10.132Z,21.90
2019-02-25T04:44:46.212Z,22.30
2019-02-25T04:46:22.290Z,21.30
2019-02-25T04:47:58.195Z,21.97
2019-02-25T04:49:34.165Z,22.47
2019-02-25T04:51:10.268Z,21.93
2019-02-25T04:52:46.238Z,21.07
2019-02-25T04:54:22.205Z,21.33
2019-02-25T04:55:58.207Z,20.60
2019-02-25T04:57:34.120Z,20.83
2019-02-25T04:59:10.091Z,20.50
2019-02-25T05:00:46.104Z,21.23
2019-02-25T05:02:22.234Z,20.90
2019-02-25T05:03:58.248Z,21.67
2019-02-25T05:05:34.882Z,20.97
2019-02-25T05:07:10.870Z,21.07
2019-02-25T05:08:46.852Z,21.37
2019-02-25T05:10:22.979Z,21.27
2019-02-25T05:12:00.285Z,20.63
2019-02-25T05:13:36.462Z,20.57
2019-02-25T05:15:15.605Z,21.03
2019-02-25T05:16:51.576Z,22.00
2019-02-25T05:18:27.386Z,19.20
2019-02-25T05:20:03.453Z,20.43
2019-02-25T05:21:39.428Z,19.27
2019-02-25T05:23:15.468Z,21.47
2019-02-25T05:24:51.538Z,19.57
2019-02-25T05:26:27.749Z,20.97
2019-02-25T05:28:05.274Z,19.93
2019-02-25T05:29:41.400Z,19.73
2019-02-25T05:31:17.542Z,19.70
2019-02-25T05:32:53.450Z,18.87
2019-02-25T05:34:29.435Z,19.17
2019-02-25T05:36:05.577Z,19.97
2019-02-25T05:37:41.802Z,19.23
2019-02-25T05:39:17.758Z,19.40
2019-02-25T05:40:53.831Z,19.53
2019-02-25T05:42:29.812Z,20.30
2019-02-25T05:44:08.410Z,19.80
2019-02-25T05:45:43.645Z,19.60
2019-02-25T05:47:21.470Z,19.93
2019-02-25T05:48:57.464Z,18.83
2019-02-25T05:50:33.532Z,20.47
2019-02-25T05:52:09.629Z,19.33
2019-02-25T05:53:45.703Z,19.60
2019-02-25T05:55:21.799Z,18.50
2019-02-25T05:56:57.946Z,19.47
2019-02-25T05:58:34.172Z,19.87
2019-02-25T06:00:21.373Z,18.97
2019-02-25T06:01:58.689Z,18.43
2019-02-25T06:03:34.781Z,20.07
2019-02-25T06:05:10.884Z,18.03
2019-02-25T06:06:46.940Z,19.83
2019-02-25T06:08:23.083Z,19.73
2019-02-25T06:09:59.193Z,20.53
2019-02-25T06:11:35.331Z,20.87
2019-02-25T06:13:11.466Z,20.90
2019-02-25T06:14:47.500Z,19.97
2019-02-25T06:16:23.970Z,20.63
2019-02-25T06:18:01.253Z,20.00
2019-02-25T06:19:37.206Z,20.20
2019-02-25T06:21:13.251Z,21.43
2019-02-25T06:22:49.115Z,20.17
2019-02-25T06:24:25.303Z,21.00
2019-02-25T06:26:01.097Z,19.20
2019-02-25T06:27:36.948Z,20.07
2019-02-25T06:29:12.842Z,18.37
2019-02-25T06:30:48.820Z,19.77
2019-02-25T06:32:24.875Z,19.17
2019-02-25T06:34:00.869Z,19.47
2019-02-25T06:35:36.894Z,19.80
2019-02-25T06:37:12.851Z,18.43
2019-02-25T06:38:49.056Z,20.27
2019-02-25T06:40:25.094Z,18.87
2019-02-25T06:42:01.107Z,19.37
2019-02-25T06:43:37.060Z,19.73
2019-02-25T06:45:37.288Z,19.47
2019-02-25T06:47:13.322Z,20.60
2019-02-25T06:48:49.457Z,20.73
2019-02-25T06:50:26.883Z,20.40
2019-02-25T06:52:02.955Z,18.83
2019-02-25T06:53:38.908Z,19.70
2019-02-25T06:55:18.222Z,20.47
2019-02-25T06:56:54.111Z,19.77
2019-02-25T06:58:30.090Z,19.73
2019-02-25T07:00:13.482Z,20.33
2019-02-25T07:01:49.619Z,20.03
2019-02-25T07:03:25.586Z,19.93
2019-02-25T07:05:03.132Z,21.20
2019-02-25T07:06:56.818Z,20.93
2019-02-25T07:08:37.064Z,20.20
2019-02-25T07:10:14.818Z,20.53
2019-02-25T07:11:55.202Z,20.87
2019-02-25T07:13:48.025Z,20.67
2019-02-25T07:15:31.942Z,19.57
2019-02-25T07:17:09.572Z,18.57
2019-02-25T07:18:48.014Z,19.73
2019-02-25T07:20:31.551Z,19.30
2019-02-25T07:22:18.168Z,19.47
2019-02-25T07:23:58.399Z,20.23
2019-02-25T07:25:36.201Z,20.07
2019-02-25T07:27:16.843Z,20.70
2019-02-25T07:29:03.479Z,20.40
2019-02-25T07:30:50.450Z,19.97
2019-02-25T07:32:26.182Z,19.00
2019-02-25T07:34:12.209Z,20.47
2019-02-25T07:35:53.185Z,20.20
2019-02-25T07:37:44.327Z,21.13
2019-02-25T07:39:38.362Z,21.13
2019-02-25T07:41:15.871Z,21.13
2019-02-25T07:42:56.278Z,19.97
2019-02-25T07:44:50.343Z,20.00
2019-02-25T07:46:32.164Z,19.43
2019-02-25T07:48:12.869Z,21.37
2019-02-25T07:49:50.582Z,21.40
2019-02-25T07:51:36.701Z,21.37
2019-02-25T07:53:15.307Z,19.90
2019-02-25T07:54:53.881Z,22.00
2019-02-25T07:56:31.515Z,22.17
2019-02-25T07:58:12.239Z,23.27
2019-02-25T08:00:02.091Z,21.23
2019-02-25T08:01:56.025Z,22.80
2019-02-25T08:03:36.578Z,22.00
2019-02-25T08:05:17.094Z,23.10
2019-02-25T08:07:01.867Z,22.13
2019-02-25T08:08:39.648Z,22.73
2019-02-25T08:10:17.417Z,22.60
2019-02-25T08:11:55.091Z,22.80
2019-02-25T08:13:35.697Z,23.13
2019-02-25T08:15:31.801Z,23.27
2019-02-25T08:17:15.510Z,23.90
2019-02-25T08:19:03.661Z,22.63
2019-02-25T08:20:48.714Z,22.80
2019-02-25T08:22:32.166Z,22.63
2019-02-25T08:24:16.182Z,21.97
2019-02-25T08:25:53.932Z,22.40
2019-02-25T08:27:46.568Z,22.63
2019-02-25T08:29:26.895Z,22.73
2019-02-25T08:31:09.204Z,22.80
2019-02-25T08:32:47.229Z,22.20
2019-02-25T08:34:27.666Z,22.77
2019-02-25T08:36:46.138Z,23.63
2019-02-25T08:38:39.807Z,23.13
2019-02-25T08:40:38.198Z,24.37
2019-02-25T08:42:21.219Z,23.67
2019-02-25T08:43:56.999Z,24.27
2019-02-25T08:45:40.438Z,23.17
2019-02-25T08:47:27.222Z,24.20
2019-02-25T08:49:13.771Z,22.90
2019-02-25T08:50:49.840Z,24.57
2019-02-25T08:52:25.954Z,23.77
2019-02-25T08:54:02.150Z,24.63
2019-02-25T08:55:38.291Z,22.70
2019-02-25T08:57:14.586Z,24.30
2019-02-25T08:58:50.716Z,24.07
2019-02-25T09:00:26.857Z,24.73
2019-02-25T09:02:02.723Z,25.30
2019-02-25T09:03:38.931Z,24.77
2019-02-25T09:05:15.732Z,23.60
2019-02-25T09:06:51.865Z,25.63
2019-02-25T09:08:27.804Z,24.90
2019-02-25T09:10:04.927Z,25.97
2019-02-25T09:11:41.131Z,25.73
2019-02-25T09:13:17.334Z,26.03
2019-02-25T09:14:53.466Z,25.07
2019-02-25T09:16:29.523Z,26.90
2019-02-25T09:18:03.822Z,25.27
2019-02-25T09:19:39.852Z,26.00
2019-02-25T09:21:16.011Z,26.43
2019-02-25T09:22:51.950Z,27.40
2019-02-25T09:24:28.009Z,25.87
2019-02-25T09:26:05.522Z,26.10
2019-02-25T09:27:43.026Z,25.43
2019-02-25T09:29:19.075Z,26.87
2019-02-25T09:30:55.210Z,27.30
2019-02-25T09:32:31.278Z,25.33
2019-02-25T09:34:07.243Z,26.50
2019-02-25T09:35:44.678Z,27.30
2019-02-25T09:37:20.743Z,25.23
2019-02-25T09:38:56.921Z,25.57
2019-02-25T09:40:32.862Z,26.93
2019-02-25T09:42:09.077Z,25.23
2019-02-25T09:43:45.063Z,24.87
2019-02-25T09:45:21.249Z,25.33
2019-02-25T09:46:57.414Z,24.77
2019-02-25T09:48:33.381Z,26.63
2019-02-25T09:50:16.139Z,25.77
2019-02-25T09:51:52.171Z,26.40
2019-02-25T09:53:28.148Z,25.43
2019-02-25T09:55:04.670Z,25.40
2019-02-25T09:56:40.670Z,28.90
2019-02-25T09:58:16.736Z,27.50
2019-02-25T09:59:52.734Z,28.50
2019-02-25T10:01:30.043Z,29.10
2019-02-25T10:03:06.088Z,26.37
2019-02-25T10:04:42.161Z,29.23
2019-02-25T10:06:18.134Z,29.20
2019-02-25T10:07:54.166Z,28.37
2019-02-25T10:09:32.404Z,26.67
2019-02-25T10:11:08.070Z,25.93
2019-02-25T10:12:44.277Z,25.03
2019-02-25T10:14:20.483Z,25.30
2019-02-25T10:15:56.732Z,25.60
2019-02-25T10:17:32.799Z,28.63
2019-02-25T10:19:08.773Z,27.20
2019-02-25T10:20:44.882Z,25.43
2019-02-25T10:22:21.049Z,23.33
2019-02-25T10:23:57.027Z,24.53
2019-02-25T10:25:33.139Z,26.43
2019-02-25T10:27:10.500Z,27.03
2019-02-25T10:28:46.597Z,23.60
2019-02-25T10:30:23.002Z,23.03
2019-02-25T10:32:00.115Z,22.07
2019-02-25T10:33:36.570Z,22.80
2019-02-25T10:35:24.985Z,22.10
2019-02-25T10:37:01.471Z,22.37
2019-02-25T10:38:37.704Z,22.93
2019-02-25T10:40:17.282Z,19.57
2019-02-25T10:41:55.088Z,20.20
2019-02-25T10:43:31.905Z,19.20
2019-02-25T10:45:21.226Z,23.00
2019-02-25T10:46:57.266Z,22.67
2019-02-25T10:48:33.328Z,22.57
2019-02-25T10:50:12.849Z,23.00
2019-02-25T10:51:48.891Z,21.57
2019-02-25T10:53:24.862Z,22.13
2019-02-25T10:55:00.862Z,23.77
2019-02-25T10:56:41.788Z,22.30
2019-02-25T10:58:17.832Z,20.70
2019-02-25T10:59:53.869Z,23.17
2019-02-25T11:01:29.934Z,23.10
2019-02-25T11:03:06.446Z,23.77
2019-02-25T11:04:42.351Z,23.60
2019-02-25T11:06:18.434Z,23.33
2019-02-25T11:07:54.558Z,22.33
2019-02-25T11:09:35.420Z,22.50
2019-02-25T11:11:13.280Z,23.20
2019-02-25T11:12:49.432Z,21.23
2019-02-25T11:14:25.581Z,21.43
2019-02-25T11:16:01.739Z,21.87
2019-02-25T11:17:39.139Z,22.17
2019-02-25T11:19:15.047Z,21.03
2019-02-25T11:20:51.150Z,21.97
2019-02-25T11:22:27.484Z,20.23
2019-02-25T11:24:03.608Z,21.03
2019-02-25T11:25:39.644Z,21.23
2019-02-25T11:27:15.854Z,18.53
2019-02-25T11:28:51.901Z,18.63
2019-02-25T11:30:28.077Z,22.07
2019-02-25T11:32:04.634Z,22.70
2019-02-25T11:33:40.756Z,22.77
2019-02-25T11:35:17.169Z,20.37
2019-02-25T11:36:55.468Z,20.87
2019-02-25T11:38:34.743Z,19.40
2019-02-25T11:40:13.382Z,20.43
2019-02-25T11:41:49.483Z,21.90
2019-02-25T11:43:25.446Z,24.93
2019-02-25T11:45:04.314Z,22.07
2019-02-25T11:46:39.393Z,20.67
2019-02-25T11:48:15.528Z,19.37
2019-02-25T11:49:51.615Z,18.60
2019-02-25T11:51:27.974Z,20.43
2019-02-25T11:53:04.091Z,20.90
2019-02-25T11:54:40.236Z,20.40
2019-02-25T11:56:16.398Z,21.03
2019-02-25T11:57:52.605Z,20.17
2019-02-25T11:59:30.606Z,22.17
2019-02-25T12:01:08.050Z,21.27
2019-02-25T12:02:44.448Z,21.07
2019-02-25T12:04:21.879Z,21.80
2019-02-25T12:05:57.960Z,21.93
2019-02-25T12:07:34.045Z,22.37
2019-02-25T12:09:10.456Z,24.23
2019-02-25T12:10:46.673Z,21.83
2019-02-25T12:12:22.878Z,22.20
2019-02-25T12:13:59.029Z,22.47
2019-02-25T12:15:35.508Z,24.87
2019-02-25T12:17:11.484Z,23.33
2019-02-25T12:18:47.534Z,22.07
2019-02-25T12:20:23.680Z,22.87
2019-02-25T12:21:59.653Z,22.37
2019-02-25T12:23:35.692Z,22.27
2019-02-25T12:25:21.356Z,22.77
2019-02-25T12:26:57.332Z,23.63
2019-02-25T12:28:33.268Z,22.80
2019-02-25T12:30:22.958Z,22.00
2019-02-25T12:31:58.990Z,21.53
2019-02-25T12:33:35.294Z,21.90
2019-02-25T12:35:12.018Z,22.37
2019-02-25T12:36:49.444Z,24.23
2019-02-25T12:38:25.584Z,25.00
2019-02-25T12:40:01.764Z,23.63
2019-02-25T12:41:37.850Z,22.97
2019-02-25T12:43:14.023Z,21.10
2019-02-25T12:44:49.987Z,23.93
2019-02-25T12:46:26.097Z,24.23
2019-02-25T12:48:02.136Z,24.07
2019-02-25T12:49:38.233Z,22.87
2019-02-25T12:51:15.580Z,23.70
2019-02-25T12:52:51.455Z,25.03
2019-02-25T12:54:27.475Z,25.37
2019-02-25T12:56:03.420Z,23.80
2019-02-25T12:57:39.526Z,26.37
2019-02-25T12:59:15.641Z,25.67
2019-02-25T13:00:51.612Z,25.43
2019-02-25T13:02:27.680Z,23.83
2019-02-25T13:04:03.899Z,24.73
2019-02-25T13:05:39.872Z,26.07
2019-02-25T13:07:15.985Z,24.50
2019-02-25T13:08:51.956Z,24.47
2019-02-25T13:10:29.413Z,25.43
2019-02-25T13:12:05.509Z,23.67
2019-02-25T13:13:41.678Z,23.80
2019-02-25T13:15:23.807Z,24.97
2019-02-25T13:16:59.921Z,23.80
2019-02-25T13:18:36.004Z,24.83
2019-02-25T13:20:14.690Z,27.10
2019-02-25T13:21:50.806Z,25.67
2019-02-25T13:23:26.874Z,26.40
2019-02-25T13:25:03.654Z,26.63
2019-02-25T13:26:40.654Z,26.70
2019-02-25T13:28:16.694Z,26.17
2019-02-25T13:29:52.717Z,27.10
2019-02-25T13:31:29.042Z,25.70
2019-02-25T13:33:05.269Z,26.67
2019-02-25T13:34:41.410Z,27.10
2019-02-25T13:36:17.384Z,26.67
2019-02-25T13:37:53.472Z,27.23
2019-02-25T13:39:29.370Z,27.60
2019-02-25T13:41:06.889Z,27.20
2019-02-25T13:42:43.035Z,28.50
2019-02-25T13:44:20.446Z,27.27
2019-02-25T13:45:56.529Z,27.07
2019-02-25T13:47:33.898Z,27.17
2019-02-25T13:49:09.888Z,28.00
2019-02-25T13:50:45.827Z,30.63
2019-02-25T13:52:21.895Z,30.73
2019-02-25T13:53:58.008Z,31.30
2019-02-25T13:55:34.132Z,28.50
2019-02-25T13:57:10.378Z,28.47
2019-02-25T13:58:46.280Z,28.23
2019-02-25T14:00:24.158Z,28.30
2019-02-25T14:02:00.237Z,28.90
2019-02-25T14:03:36.482Z,29.03
2019-02-25T14:05:12.693Z,30.53
2019-02-25T14:06:48.692Z,28.97
2019-02-25T14:08:24.792Z,32.10
2019-02-25T14:10:00.861Z,36.10
2019-02-25T14:11:38.119Z,35.47
2019-02-25T14:13:14.325Z,30.10
2019-02-25T14:14:50.371Z,32.03
2019-02-25T14:16:26.780Z,30.83
2019-02-25T14:18:03.806Z,31.17
2019-02-25T14:19:39.843Z,29.93
2019-02-25T14:21:16.840Z,29.97
2019-02-25T14:22:54.443Z,29.97
2019-02-25T14:24:30.585Z,34.23
2019-02-25T14:26:06.660Z,35.77
2019-02-25T14:27:42.635Z,32.80
2019-02-25T14:29:18.985Z,33.80
2019-02-25T14:30:55.055Z,33.90
2019-02-25T14:32:31.258Z,32.33
2019-02-25T14:34:07.300Z,35.67
2019-02-25T14:35:46.956Z,33.17
2019-02-25T14:37:23.674Z,33.50
2019-02-25T14:39:02.242Z,35.87
2019-02-25T14:40:43.785Z,33.23
2019-02-25T14:42:18.876Z,35.57
2019-02-25T14:43:56.140Z,33.67
2019-02-25T14:45:34.389Z,32.20
2019-02-25T14:47:20.605Z,36.13
2019-02-25T14:48:52.712Z,35.90
2019-02-25T14:50:29.173Z,37.90
2019-02-25T14:52:05.308Z,35.47
2019-02-25T14:53:42.371Z,37.07
2019-02-25T14:55:19.519Z,37.50
2019-02-25T14:56:57.103Z,36.03
2019-02-25T14:58:36.213Z,38.60
2019-02-25T15:00:23.457Z,40.83
2019-02-25T15:02:01.493Z,45.50
2019-02-25T15:03:39.341Z,45.43
2019-02-25T15:05:19.328Z,44.07
2019-02-25T15:06:55.589Z,46.07
2019-02-25T15:08:31.626Z,47.63
2019-02-25T15:10:11.651Z,48.57
2019-02-25T15:11:47.683Z,52.63
2019-02-25T15:13:24.348Z,55.80
2019-02-25T15:15:03.067Z,43.90
2019-02-25T15:16:40.048Z,44.03
2019-02-25T15:18:17.610Z,42.83
2019-02-25T15:19:53.899Z,42.13
2019-02-25T15:21:30.089Z,41.97
2019-02-25T15:23:07.587Z,47.40
2019-02-25T15:24:44.399Z,50.93
2019-02-25T15:26:23.216Z,57.90
2019-02-25T15:28:02.555Z,64.73
2019-02-25T15:29:42.347Z,55.10
2019-02-25T15:31:18.256Z,49.93
2019-02-25T15:32:56.788Z,52.93
2019-02-25T15:34:33.895Z,53.17
2019-02-25T15:36:13.185Z,56.10
2019-02-25T15:37:50.730Z,56.27
2019-02-25T15:39:28.359Z,52.40
2019-02-25T15:41:04.984Z,58.60
2019-02-25T15:42:43.607Z,61.43
2019-02-25T15:44:19.726Z,53.97
2019-02-25T15:45:56.829Z,62.73
2019-02-25T15:47:32.933Z,67.03
2019-02-25T15:49:12.731Z,70.20
2019-02-25T15:50:55.282Z,69.83
2019-02-25T15:52:39.714Z,59.83
2019-02-25T15:54:10.164Z,54.13
2019-02-25T15:55:46.504Z,50.33
2019-02-25T15:57:24.540Z,51.90
2019-02-25T15:59:01.021Z,50.27
2019-02-25T16:00:38.493Z,47.53
2019-02-25T16:02:14.602Z,48.47
2019-02-25T16:03:50.807Z,47.00
2019-02-25T16:05:29.682Z,46.27
2019-02-25T16:07:08.844Z,45.40
2019-02-25T16:08:49.948Z,43.90
2019-02-25T16:10:26.044Z,44.47
2019-02-25T16:12:05.293Z,44.63
2019-02-25T16:13:42.432Z,50.17
2019-02-25T16:15:20.828Z,66.20
2019-02-25T16:16:57.291Z,77.47
2019-02-25T16:18:34.517Z,70.77
2019-02-25T16:20:17.561Z,55.37
2019-02-25T16:21:54.790Z,50.83
2019-02-25T16:23:34.139Z,44.63
2019-02-25T16:25:27.084Z,44.73
2019-02-25T16:27:04.629Z,46.33
2019-02-25T16:28:40.848Z,45.67
2019-02-25T16:30:21.425Z,43.50
2019-02-25T16:32:01.787Z,45.90
2019-02-25T16:33:38.540Z,46.20
2019-02-25T16:35:15.953Z,45.90
2019-02-25T16:36:54.223Z,47.37
2019-02-25T16:38:31.962Z,45.97
2019-02-25T16:40:18.612Z,44.87
2019-02-25T16:41:55.015Z,46.80
2019-02-25T16:43:32.519Z,49.53
2019-02-25T16:45:32.179Z,49.57
2019-02-25T16:47:04.710Z,48.03
2019-02-25T16:48:41.142Z,49.23
2019-02-25T16:50:18.693Z,50.97
2019-02-25T16:51:59.387Z,51.83
2019-02-25T16:53:38.742Z,57.63
2019-02-25T16:55:24.697Z,61.13
2019-02-25T16:57:00.370Z,65.17
2019-02-25T16:58:36.722Z,64.73
2019-02-25T17:00:27.826Z,57.10
2019-02-25T17:02:07.173Z,60.73
2019-02-25T17:03:44.331Z,58.33
2019-02-25T17:05:23.065Z,57.57
2019-02-25T17:07:00.162Z,51.87
2019-02-25T17:08:39.353Z,47.13
2019-02-25T17:10:27.103Z,45.87
2019-02-25T17:12:05.103Z,47.20
2019-02-25T17:13:41.541Z,46.90
2019-02-25T17:15:19.719Z,46.40
2019-02-25T17:16:57.008Z,50.37
2019-02-25T17:18:34.581Z,51.63
2019-02-25T17:20:16.370Z,50.07
2019-02-25T17:21:54.219Z,57.17
2019-02-25T17:23:32.167Z,97.10
2019-02-25T17:25:14.869Z,110.13
2019-02-25T17:26:51.076Z,146.30
2019-02-25T17:28:27.437Z,124.83
2019-02-25T17:30:04.435Z,91.67
2019-02-25T17:31:40.887Z,104.43
2019-02-25T17:33:17.551Z,118.97
2019-02-25T17:34:53.755Z,129.90
2019-02-25T17:36:29.922Z,123.70
2019-02-25T17:38:06.167Z,146.80
2019-02-25T17:39:43.790Z,253.50
2019-02-25T17:41:19.861Z,240.80
2019-02-25T17:42:56.424Z,254.20
2019-02-25T17:44:34.359Z,292.70
2019-02-25T17:46:11.665Z,265.17
2019-02-25T17:47:49.276Z,198.57
2019-02-25T17:49:26.679Z,181.87
2019-02-25T17:51:03.899Z,164.23
2019-02-25T17:52:42.114Z,104.43
2019-02-25T17:54:18.072Z,104.77
2019-02-25T17:55:57.227Z,106.17
2019-02-25T17:57:34.969Z,95.93
2019-02-25T17:59:12.862Z,107.27
2019-02-25T18:00:50.742Z,100.50
2019-02-25T18:02:26.926Z,84.97
2019-02-25T18:04:04.970Z,87.90
2019-02-25T18:05:43.259Z,86.20
2019-02-25T18:07:21.596Z,77.47
2019-02-25T18:08:59.470Z,87.33
2019-02-25T18:10:35.755Z,87.70
2019-02-25T18:12:12.394Z,76.20
2019-02-25T18:13:49.032Z,78.20
2019-02-25T18:15:33.933Z,73.77
2019-02-25T18:17:12.564Z,79.57
2019-02-25T18:18:51.987Z,70.67
2019-02-25T18:20:29.505Z,69.97
2019-02-25T18:22:07.050Z,58.67
2019-02-25T18:23:45.311Z,58.33
2019-02-25T18:25:23.089Z,62.27
2019-02-25T18:26:59.470Z,62.23
2019-02-25T18:28:37.410Z,65.23
2019-02-25T18:30:22.231Z,69.10
2019-02-25T18:31:58.773Z,72.60
2019-02-25T18:33:34.973Z,74.47
2019-02-25T18:35:12.254Z,64.17
2019-02-25T18:36:51.618Z,64.83
2019-02-25T18:38:32.181Z,57.83
2019-02-25T18:40:16.259Z,62.33
2019-02-25T18:41:55.128Z,75.73
2019-02-25T18:43:32.911Z,58.10
2019-02-25T18:45:20.779Z,61.77
2019-02-25T18:46:57.407Z,57.97
2019-02-25T18:48:33.545Z,60.27
2019-02-25T18:50:17.224Z,61.97
2019-02-25T18:51:51.917Z,52.37
2019-02-25T18:53:30.610Z,49.37
2019-02-25T18:55:14.915Z,50.83
2019-02-25T18:56:51.897Z,47.50
2019-02-25T18:58:30.532Z,49.50
2019-02-25T19:00:22.219Z,51.27
2019-02-25T19:01:59.556Z,47.70
2019-02-25T19:03:38.122Z,48.13
2019-02-25T19:05:14.764Z,47.37
2019-02-25T19:06:51.010Z,48.43
2019-02-25T19:08:29.081Z,47.17
2019-02-25T19:10:05.808Z,45.37
2019-02-25T19:11:42.861Z,46.83
2019-02-25T19:13:23.319Z,46.80
2019-02-25T19:15:02.490Z,43.47
2019-02-25T19:16:40.023Z,41.27
2019-02-25T19:18:17.695Z,40.73
2019-02-25T19:19:53.940Z,41.67
2019-02-25T19:21:34.452Z,36.93
2019-02-25T19:23:12.435Z,40.47
2019-02-25T19:24:50.843Z,41.00
2019-02-25T19:26:27.082Z,41.53
2019-02-25T19:28:03.496Z,40.47
2019-02-25T19:29:39.795Z,42.33
2019-02-25T19:31:16.020Z,41.47
2019-02-25T19:32:52.916Z,41.87
2019-02-25T19:34:29.382Z,40.27
2019-02-25T19:36:07.064Z,39.27
2019-02-25T19:37:44.424Z,39.57
2019-02-25T19:39:21.737Z,42.07
2019-02-25T19:40:59.847Z,41.90
2019-02-25T19:42:43.170Z,40.43
2019-02-25T19:44:21.288Z,40.63
2019-02-25T19:45:59.516Z,43.93
2019-02-25T19:47:37.761Z,42.80
2019-02-25T19:49:18.796Z,42.07
2019-02-25T19:50:59.503Z,41.50
2019-02-25T19:52:39.524Z,43.33
2019-02-25T19:54:18.485Z,43.60
2019-02-25T19:55:56.512Z,39.57
2019-02-25T19:57:56.633Z,44.23
2019-02-25T19:59:43.349Z,43.43
2019-02-25T20:01:30.180Z,43.67
2019-02-25T20:03:16.878Z,43.20
2019-02-25T20:05:00.582Z,43.57
2019-02-25T20:06:38.138Z,43.50
2019-02-25T20:08:14.910Z,44.63
2019-02-25T20:09:53.101Z,43.47
2019-02-25T20:11:32.172Z,45.40
2019-02-25T20:13:08.832Z,43.77
2019-02-25T20:14:47.042Z,45.73
2019-02-25T20:16:27.594Z,47.13
2019-02-25T20:18:01.556Z,50.40
2019-02-25T20:19:39.204Z,45.23
2019-02-25T20:21:16.301Z,46.57
2019-02-25T20:22:52.834Z,46.63
2019-02-25T20:24:29.415Z,45.47
2019-02-25T20:26:11.322Z,47.70
2019-02-25T20:27:47.297Z,45.43
2019-02-25T20:29:23.371Z,43.73
2019-02-25T20:30:59.561Z,43.77
2019-02-25T20:32:38.568Z,40.93
2019-02-25T20:34:18.517Z,41.53
2019-02-25T20:35:55.815Z,41.57
2019-02-25T20:37:31.435Z,40.37
2019-02-25T20:39:09.037Z,42.33
2019-02-25T20:40:49.049Z,40.10
2019-02-25T20:42:24.461Z,40.60
2019-02-25T20:44:03.305Z,40.20
2019-02-25T20:45:43.139Z,42.73
2019-02-25T20:47:19.317Z,41.83
2019-02-25T20:48:56.111Z,41.57
2019-02-25T20:50:33.311Z,43.10
2019-02-25T20:52:09.417Z,43.37
2019-02-25T20:53:48.331Z,40.37
2019-02-25T20:55:24.982Z,41.20
2019-02-25T20:57:01.997Z,41.30
2019-02-25T20:58:40.037Z,42.57
2019-02-25T21:00:20.140Z,42.27